sensor_id;sensor_type;location;lat;lon;timestamp;P1;durP1;ratioP1;P2;durP2;ratioP2
64633;SDS011;51043;52.406;9.690;2022-12-29T00:00:03;2.17;;;1.97;;
64633;SDS011;51043;52.406;9.690;2022-12-29T00:02:39;2.30;;;2.10;;
64633;SDS011;51043;52.406;9.690;2022-12-29T00:05:06;3.20;;;2.10;;
64633;SDS011;51043;52.406;9.690;2022-12-29T00:07:34;2.40;;;2.00;;
64633;SDS011;51043;52.406;9.690;2022-12-29T00:10:00;3.97;;;2.07;;
64633;SDS011;51043;52.406;9.690;2022-12-29T00:12:27;2.50;;;2.30;;
64633;SDS011;51043;52.406;9.690;2022-12-29T00:15:14;4.00;;;1.90;;
64633;SDS011;51043;52.406;9.690;2022-12-29T00:18:00;1.83;;;1.73;;
64633;SDS011;51043;52.406;9.690;2022-12-29T00:20:27;3.70;;;2.00;;
64633;SDS011;51043;52.406;9.690;2022-12-29T00:23:12;2.30;;;2.00;;
64633;SDS011;51043;52.406;9.690;2022-12-29T00:25:58;2.37;;;1.70;;
64633;SDS011;51043;52.406;9.690;2022-12-29T00:28:49;4.33;;;2.20;;
64633;SDS011;51043;52.406;9.690;2022-12-29T00:31:35;2.80;;;1.97;;
64633;SDS011;51043;52.406;9.690;2022-12-29T00:34:21;2.80;;;1.90;;
64633;SDS011;51043;52.406;9.690;2022-12-29T00:37:06;2.73;;;2.20;;
64633;SDS011;51043;52.406;9.690;2022-12-29T00:39:34;2.30;;;2.10;;
64633;SDS011;51043;52.406;9.690;2022-12-29T00:42:19;3.53;;;2.20;;
64633;SDS011;51043;52.406;9.690;2022-12-29T00:45:05;3.37;;;1.90;;
64633;SDS011;51043;52.406;9.690;2022-12-29T00:47:33;4.60;;;1.97;;
64633;SDS011;51043;52.406;9.690;2022-12-29T00:49:59;2.13;;;1.67;;
64633;SDS011;51043;52.406;9.690;2022-12-29T00:52:26;1.90;;;1.70;;
64633;SDS011;51043;52.406;9.690;2022-12-29T00:54:53;3.83;;;2.23;;
64633;SDS011;51043;52.406;9.690;2022-12-29T00:57:20;3.00;;;1.93;;
64633;SDS011;51043;52.406;9.690;2022-12-29T00:59:47;2.37;;;1.83;;
64633;SDS011;51043;52.406;9.690;2022-12-29T01:02:14;2.30;;;1.90;;
64633;SDS011;51043;52.406;9.690;2022-12-29T01:04:41;5.93;;;2.00;;
64633;SDS011;51043;52.406;9.690;2022-12-29T01:07:08;2.33;;;1.70;;
64633;SDS011;51043;52.406;9.690;2022-12-29T01:09:36;3.80;;;1.93;;
64633;SDS011;51043;52.406;9.690;2022-12-29T01:12:21;1.83;;;1.53;;
64633;SDS011;51043;52.406;9.690;2022-12-29T01:15:09;5.20;;;1.83;;
64633;SDS011;51043;52.406;9.690;2022-12-29T01:17:38;2.20;;;1.60;;
64633;SDS011;51043;52.406;9.690;2022-12-29T01:20:05;2.83;;;1.73;;
64633;SDS011;51043;52.406;9.690;2022-12-29T01:22:34;2.43;;;1.90;;
64633;SDS011;51043;52.406;9.690;2022-12-29T01:25:01;2.83;;;1.80;;
64633;SDS011;51043;52.406;9.690;2022-12-29T01:27:28;1.83;;;1.63;;
64633;SDS011;51043;52.406;9.690;2022-12-29T01:29:55;3.60;;;2.13;;
64633;SDS011;51043;52.406;9.690;2022-12-29T01:32:21;2.33;;;1.67;;
64633;SDS011;51043;52.406;9.690;2022-12-29T01:34:48;2.07;;;1.70;;
64633;SDS011;51043;52.406;9.690;2022-12-29T01:37:15;2.83;;;1.80;;
64633;SDS011;51043;52.406;9.690;2022-12-29T01:39:42;2.33;;;1.83;;
64633;SDS011;51043;52.406;9.690;2022-12-29T01:42:16;6.00;;;2.07;;
64633;SDS011;51043;52.406;9.690;2022-12-29T01:50:13;2.50;;;1.90;;
64633;SDS011;51043;52.406;9.690;2022-12-29T01:52:55;2.77;;;1.80;;
64633;SDS011;51043;52.406;9.690;2022-12-29T01:55:33;2.97;;;1.60;;
64633;SDS011;51043;52.406;9.690;2022-12-29T01:58:06;3.70;;;1.70;;
64633;SDS011;51043;52.406;9.690;2022-12-29T02:00:36;2.10;;;1.70;;
64633;SDS011;51043;52.406;9.690;2022-12-29T02:03:03;3.27;;;2.00;;
64633;SDS011;51043;52.406;9.690;2022-12-29T02:05:39;3.27;;;1.70;;
64633;SDS011;51043;52.406;9.690;2022-12-29T02:08:11;1.83;;;1.60;;
64633;SDS011;51043;52.406;9.690;2022-12-29T02:10:39;2.57;;;1.63;;
64633;SDS011;51043;52.406;9.690;2022-12-29T02:13:08;2.07;;;1.50;;
64633;SDS011;51043;52.406;9.690;2022-12-29T02:18:12;2.60;;;1.73;;
64633;SDS011;51043;52.406;9.690;2022-12-29T02:23:49;4.30;;;1.80;;
64633;SDS011;51043;52.406;9.690;2022-12-29T02:26:39;2.30;;;1.60;;
64633;SDS011;51043;52.406;9.690;2022-12-29T02:38:05;1.90;;;1.60;;
64633;SDS011;51043;52.406;9.690;2022-12-29T02:46:36;1.67;;;1.33;;
64633;SDS011;51043;52.406;9.690;2022-12-29T02:49:12;2.20;;;1.60;;
64633;SDS011;51043;52.406;9.690;2022-12-29T02:51:52;1.43;;;1.30;;
64633;SDS011;51043;52.406;9.690;2022-12-29T02:54:22;3.63;;;1.50;;
64633;SDS011;51043;52.406;9.690;2022-12-29T02:59:39;5.37;;;1.80;;
64633;SDS011;51043;52.406;9.690;2022-12-29T03:07:50;3.70;;;1.80;;
64633;SDS011;51043;52.406;9.690;2022-12-29T03:16:53;2.13;;;1.60;;
64633;SDS011;51043;52.406;9.690;2022-12-29T03:19:30;2.00;;;1.57;;
64633;SDS011;51043;52.406;9.690;2022-12-29T03:22:01;2.00;;;1.70;;
64633;SDS011;51043;52.406;9.690;2022-12-29T03:27:43;1.90;;;1.60;;
64633;SDS011;51043;52.406;9.690;2022-12-29T03:30:13;5.97;;;1.60;;
64633;SDS011;51043;52.406;9.690;2022-12-29T03:32:44;2.37;;;1.63;;
64633;SDS011;51043;52.406;9.690;2022-12-29T03:35:26;1.63;;;1.30;;
64633;SDS011;51043;52.406;9.690;2022-12-29T03:41:01;2.53;;;1.53;;
64633;SDS011;51043;52.406;9.690;2022-12-29T03:43:34;2.60;;;1.63;;
64633;SDS011;51043;52.406;9.690;2022-12-29T03:46:01;1.97;;;1.50;;
64633;SDS011;51043;52.406;9.690;2022-12-29T03:48:28;1.73;;;1.40;;
64633;SDS011;51043;52.406;9.690;2022-12-29T03:50:55;1.30;;;1.20;;
64633;SDS011;51043;52.406;9.690;2022-12-29T03:53:22;2.03;;;1.40;;
64633;SDS011;51043;52.406;9.690;2022-12-29T03:55:49;1.43;;;1.33;;
64633;SDS011;51043;52.406;9.690;2022-12-29T03:58:16;2.10;;;1.30;;
64633;SDS011;51043;52.406;9.690;2022-12-29T04:00:51;1.47;;;1.30;;
64633;SDS011;51043;52.406;9.690;2022-12-29T04:03:17;1.67;;;1.30;;
64633;SDS011;51043;52.406;9.690;2022-12-29T04:05:44;1.23;;;1.13;;
64633;SDS011;51043;52.406;9.690;2022-12-29T04:08:11;1.07;;;1.00;;
64633;SDS011;51043;52.406;9.690;2022-12-29T04:10:39;1.30;;;1.20;;
64633;SDS011;51043;52.406;9.690;2022-12-29T04:13:06;1.30;;;1.20;;
64633;SDS011;51043;52.406;9.690;2022-12-29T04:15:33;1.40;;;1.30;;
64633;SDS011;51043;52.406;9.690;2022-12-29T04:18:00;1.43;;;1.10;;
64633;SDS011;51043;52.406;9.690;2022-12-29T04:20:27;1.13;;;1.00;;
64633;SDS011;51043;52.406;9.690;2022-12-29T04:23:13;2.90;;;1.10;;
64633;SDS011;51043;52.406;9.690;2022-12-29T04:25:40;1.50;;;1.30;;
64633;SDS011;51043;52.406;9.690;2022-12-29T04:28:08;1.93;;;1.00;;
64633;SDS011;51043;52.406;9.690;2022-12-29T04:30:44;2.73;;;1.10;;
64633;SDS011;51043;52.406;9.690;2022-12-29T04:33:16;1.67;;;1.20;;
64633;SDS011;51043;52.406;9.690;2022-12-29T04:35:43;1.10;;;1.00;;
64633;SDS011;51043;52.406;9.690;2022-12-29T04:38:11;1.20;;;1.10;;
64633;SDS011;51043;52.406;9.690;2022-12-29T04:40:40;1.30;;;1.20;;
64633;SDS011;51043;52.406;9.690;2022-12-29T04:43:09;1.47;;;1.10;;
64633;SDS011;51043;52.406;9.690;2022-12-29T04:46:03;1.20;;;1.10;;
64633;SDS011;51043;52.406;9.690;2022-12-29T04:48:39;1.47;;;1.20;;
64633;SDS011;51043;52.406;9.690;2022-12-29T04:51:24;1.30;;;1.10;;
64633;SDS011;51043;52.406;9.690;2022-12-29T04:53:51;1.10;;;1.00;;
64633;SDS011;51043;52.406;9.690;2022-12-29T04:56:18;1.20;;;1.10;;
64633;SDS011;51043;52.406;9.690;2022-12-29T04:58:46;1.10;;;1.00;;
64633;SDS011;51043;52.406;9.690;2022-12-29T05:01:13;1.50;;;1.00;;
64633;SDS011;51043;52.406;9.690;2022-12-29T05:03:40;1.50;;;1.20;;
64633;SDS011;51043;52.406;9.690;2022-12-29T05:06:07;1.00;;;1.00;;
64633;SDS011;51043;52.406;9.690;2022-12-29T05:08:34;1.73;;;1.10;;
64633;SDS011;51043;52.406;9.690;2022-12-29T05:11:02;1.50;;;1.00;;
64633;SDS011;51043;52.406;9.690;2022-12-29T05:13:28;2.87;;;1.13;;
64633;SDS011;51043;52.406;9.690;2022-12-29T05:15:56;1.20;;;1.00;;
64633;SDS011;51043;52.406;9.690;2022-12-29T05:18:23;1.20;;;1.10;;
64633;SDS011;51043;52.406;9.690;2022-12-29T05:20:50;1.80;;;1.03;;
64633;SDS011;51043;52.406;9.690;2022-12-29T05:23:19;0.87;;;0.80;;
64633;SDS011;51043;52.406;9.690;2022-12-29T05:25:53;2.33;;;1.40;;
64633;SDS011;51043;52.406;9.690;2022-12-29T05:28:27;1.10;;;1.00;;
64633;SDS011;51043;52.406;9.690;2022-12-29T05:31:04;2.17;;;1.10;;
64633;SDS011;51043;52.406;9.690;2022-12-29T05:33:31;1.03;;;0.93;;
64633;SDS011;51043;52.406;9.690;2022-12-29T05:36:08;1.30;;;1.00;;
64633;SDS011;51043;52.406;9.690;2022-12-29T05:38:40;2.57;;;0.90;;
64633;SDS011;51043;52.406;9.690;2022-12-29T05:41:07;1.23;;;0.87;;
64633;SDS011;51043;52.406;9.690;2022-12-29T05:43:40;2.13;;;0.90;;
64633;SDS011;51043;52.406;9.690;2022-12-29T05:46:39;1.57;;;1.00;;
64633;SDS011;51043;52.406;9.690;2022-12-29T05:49:06;2.53;;;0.90;;
64633;SDS011;51043;52.406;9.690;2022-12-29T05:51:50;1.80;;;1.00;;
64633;SDS011;51043;52.406;9.690;2022-12-29T05:54:17;2.93;;;0.80;;
64633;SDS011;51043;52.406;9.690;2022-12-29T05:56:44;1.07;;;1.00;;
64633;SDS011;51043;52.406;9.690;2022-12-29T05:59:11;1.00;;;0.80;;
64633;SDS011;51043;52.406;9.690;2022-12-29T06:01:39;1.50;;;0.90;;
64633;SDS011;51043;52.406;9.690;2022-12-29T06:04:06;1.70;;;1.10;;
64633;SDS011;51043;52.406;9.690;2022-12-29T06:06:33;1.97;;;1.13;;
64633;SDS011;51043;52.406;9.690;2022-12-29T06:09:01;1.47;;;1.20;;
64633;SDS011;51043;52.406;9.690;2022-12-29T06:11:29;2.40;;;1.50;;
64633;SDS011;51043;52.406;9.690;2022-12-29T06:13:58;1.50;;;1.17;;
64633;SDS011;51043;52.406;9.690;2022-12-29T06:16:24;2.47;;;1.20;;
64633;SDS011;51043;52.406;9.690;2022-12-29T06:18:56;3.03;;;1.00;;
64633;SDS011;51043;52.406;9.690;2022-12-29T06:21:22;1.10;;;0.90;;
64633;SDS011;51043;52.406;9.690;2022-12-29T06:23:49;1.10;;;1.00;;
64633;SDS011;51043;52.406;9.690;2022-12-29T06:26:16;4.20;;;1.20;;
64633;SDS011;51043;52.406;9.690;2022-12-29T06:28:45;1.00;;;1.00;;
64633;SDS011;51043;52.406;9.690;2022-12-29T06:31:12;1.43;;;1.10;;
64633;SDS011;51043;52.406;9.690;2022-12-29T06:33:39;1.20;;;1.07;;
64633;SDS011;51043;52.406;9.690;2022-12-29T06:36:06;1.37;;;1.27;;
64633;SDS011;51043;52.406;9.690;2022-12-29T06:38:33;1.47;;;1.17;;
64633;SDS011;51043;52.406;9.690;2022-12-29T06:41:01;1.57;;;1.10;;
64633;SDS011;51043;52.406;9.690;2022-12-29T06:43:34;1.17;;;1.00;;
64633;SDS011;51043;52.406;9.690;2022-12-29T06:46:08;1.50;;;1.30;;
64633;SDS011;51043;52.406;9.690;2022-12-29T06:48:38;1.87;;;1.10;;
64633;SDS011;51043;52.406;9.690;2022-12-29T06:51:08;1.07;;;1.00;;
64633;SDS011;51043;52.406;9.690;2022-12-29T06:53:35;1.10;;;1.10;;
64633;SDS011;51043;52.406;9.690;2022-12-29T06:56:02;1.37;;;1.10;;
64633;SDS011;51043;52.406;9.690;2022-12-29T06:58:29;1.10;;;1.00;;
64633;SDS011;51043;52.406;9.690;2022-12-29T07:00:56;3.23;;;1.30;;
64633;SDS011;51043;52.406;9.690;2022-12-29T07:03:24;1.10;;;1.00;;
64633;SDS011;51043;52.406;9.690;2022-12-29T07:05:51;1.07;;;1.00;;
64633;SDS011;51043;52.406;9.690;2022-12-29T07:08:18;0.90;;;0.90;;
64633;SDS011;51043;52.406;9.690;2022-12-29T07:10:45;1.70;;;0.73;;
64633;SDS011;51043;52.406;9.690;2022-12-29T07:13:12;1.50;;;1.00;;
64633;SDS011;51043;52.406;9.690;2022-12-29T07:15:39;3.20;;;1.13;;
64633;SDS011;51043;52.406;9.690;2022-12-29T07:18:07;1.23;;;0.80;;
64633;SDS011;51043;52.406;9.690;2022-12-29T07:20:34;2.03;;;1.17;;
64633;SDS011;51043;52.406;9.690;2022-12-29T07:23:01;2.50;;;1.00;;
64633;SDS011;51043;52.406;9.690;2022-12-29T07:25:28;1.17;;;0.70;;
64633;SDS011;51043;52.406;9.690;2022-12-29T07:27:55;1.90;;;1.20;;
64633;SDS011;51043;52.406;9.690;2022-12-29T07:30:22;3.17;;;1.10;;
64633;SDS011;51043;52.406;9.690;2022-12-29T07:32:49;1.60;;;1.00;;
64633;SDS011;51043;52.406;9.690;2022-12-29T07:35:16;0.90;;;0.90;;
64633;SDS011;51043;52.406;9.690;2022-12-29T07:37:43;2.57;;;0.97;;
64633;SDS011;51043;52.406;9.690;2022-12-29T07:40:10;2.97;;;1.20;;
64633;SDS011;51043;52.406;9.690;2022-12-29T07:42:38;2.77;;;1.00;;
64633;SDS011;51043;52.406;9.690;2022-12-29T07:45:07;4.57;;;1.17;;
64633;SDS011;51043;52.406;9.690;2022-12-29T07:47:53;4.27;;;1.30;;
64633;SDS011;51043;52.406;9.690;2022-12-29T07:50:20;1.03;;;0.90;;
64633;SDS011;51043;52.406;9.690;2022-12-29T07:52:47;3.00;;;0.80;;
64633;SDS011;51043;52.406;9.690;2022-12-29T07:55:14;2.53;;;0.93;;
64633;SDS011;51043;52.406;9.690;2022-12-29T07:57:42;1.80;;;1.00;;
64633;SDS011;51043;52.406;9.690;2022-12-29T08:00:09;1.83;;;1.30;;
64633;SDS011;51043;52.406;9.690;2022-12-29T08:02:37;1.43;;;0.97;;
64633;SDS011;51043;52.406;9.690;2022-12-29T08:05:04;1.00;;;0.90;;
64633;SDS011;51043;52.406;9.690;2022-12-29T08:07:31;0.97;;;0.90;;
64633;SDS011;51043;52.406;9.690;2022-12-29T08:09:58;3.00;;;1.10;;
64633;SDS011;51043;52.406;9.690;2022-12-29T08:12:25;2.07;;;1.20;;
64633;SDS011;51043;52.406;9.690;2022-12-29T08:14:52;1.17;;;1.10;;
64633;SDS011;51043;52.406;9.690;2022-12-29T08:17:18;2.77;;;1.80;;
64633;SDS011;51043;52.406;9.690;2022-12-29T08:19:45;6.90;;;3.93;;
64633;SDS011;51043;52.406;9.690;2022-12-29T08:22:14;4.23;;;3.20;;
64633;SDS011;51043;52.406;9.690;2022-12-29T08:24:41;3.47;;;2.27;;
64633;SDS011;51043;52.406;9.690;2022-12-29T08:27:07;4.23;;;2.40;;
64633;SDS011;51043;52.406;9.690;2022-12-29T08:29:41;9.23;;;1.80;;
64633;SDS011;51043;52.406;9.690;2022-12-29T08:32:08;3.47;;;1.40;;
64633;SDS011;51043;52.406;9.690;2022-12-29T08:34:35;3.37;;;1.10;;
64633;SDS011;51043;52.406;9.690;2022-12-29T08:37:02;3.07;;;1.20;;
64633;SDS011;51043;52.406;9.690;2022-12-29T08:39:29;3.33;;;1.37;;
64633;SDS011;51043;52.406;9.690;2022-12-29T08:41:56;3.93;;;1.30;;
64633;SDS011;51043;52.406;9.690;2022-12-29T08:44:23;3.77;;;1.43;;
64633;SDS011;51043;52.406;9.690;2022-12-29T08:46:50;3.77;;;1.37;;
64633;SDS011;51043;52.406;9.690;2022-12-29T08:49:17;4.40;;;1.27;;
64633;SDS011;51043;52.406;9.690;2022-12-29T08:51:44;3.27;;;1.50;;
64633;SDS011;51043;52.406;9.690;2022-12-29T08:54:14;5.23;;;1.60;;
64633;SDS011;51043;52.406;9.690;2022-12-29T08:56:41;4.43;;;1.40;;
64633;SDS011;51043;52.406;9.690;2022-12-29T08:59:08;5.77;;;1.53;;
64633;SDS011;51043;52.406;9.690;2022-12-29T09:01:36;6.80;;;1.53;;
64633;SDS011;51043;52.406;9.690;2022-12-29T09:04:06;4.80;;;1.33;;
64633;SDS011;51043;52.406;9.690;2022-12-29T09:06:43;3.87;;;1.87;;
64633;SDS011;51043;52.406;9.690;2022-12-29T09:09:10;3.20;;;1.40;;
64633;SDS011;51043;52.406;9.690;2022-12-29T09:11:37;5.67;;;1.70;;
64633;SDS011;51043;52.406;9.690;2022-12-29T09:14:04;5.40;;;2.20;;
64633;SDS011;51043;52.406;9.690;2022-12-29T09:16:31;7.67;;;3.33;;
64633;SDS011;51043;52.406;9.690;2022-12-29T09:18:58;8.40;;;4.77;;
64633;SDS011;51043;52.406;9.690;2022-12-29T09:21:26;8.37;;;3.93;;
64633;SDS011;51043;52.406;9.690;2022-12-29T09:23:53;6.27;;;3.40;;
64633;SDS011;51043;52.406;9.690;2022-12-29T09:26:20;6.13;;;3.27;;
64633;SDS011;51043;52.406;9.690;2022-12-29T09:28:47;5.00;;;2.43;;
64633;SDS011;51043;52.406;9.690;2022-12-29T09:31:14;7.93;;;2.30;;
64633;SDS011;51043;52.406;9.690;2022-12-29T09:33:43;4.53;;;2.07;;
64633;SDS011;51043;52.406;9.690;2022-12-29T09:36:11;3.10;;;1.67;;
64633;SDS011;51043;52.406;9.690;2022-12-29T09:38:37;5.27;;;1.77;;
64633;SDS011;51043;52.406;9.690;2022-12-29T09:41:06;4.93;;;1.60;;
64633;SDS011;51043;52.406;9.690;2022-12-29T09:46:43;3.83;;;1.60;;
64633;SDS011;51043;52.406;9.690;2022-12-29T09:51:59;5.40;;;1.73;;
64633;SDS011;51043;52.406;9.690;2022-12-29T09:54:43;4.63;;;1.97;;
64633;SDS011;51043;52.406;9.690;2022-12-29T09:57:20;2.83;;;1.83;;
64633;SDS011;51043;52.406;9.690;2022-12-29T09:59:52;5.67;;;1.63;;
64633;SDS011;51043;52.406;9.690;2022-12-29T10:02:36;4.67;;;1.50;;
64633;SDS011;51043;52.406;9.690;2022-12-29T10:05:12;4.60;;;1.57;;
64633;SDS011;51043;52.406;9.690;2022-12-29T10:16:49;2.30;;;1.37;;
64633;SDS011;51043;52.406;9.690;2022-12-29T10:21:59;1.87;;;1.37;;
64633;SDS011;51043;52.406;9.690;2022-12-29T10:24:48;3.00;;;1.57;;
64633;SDS011;51043;52.406;9.690;2022-12-29T10:27:17;3.97;;;1.20;;
64633;SDS011;51043;52.406;9.690;2022-12-29T10:29:49;3.90;;;1.47;;
64633;SDS011;51043;52.406;9.690;2022-12-29T10:37:44;2.80;;;1.50;;
64633;SDS011;51043;52.406;9.690;2022-12-29T10:40:19;2.80;;;1.37;;
64633;SDS011;51043;52.406;9.690;2022-12-29T10:42:54;3.27;;;1.53;;
64633;SDS011;51043;52.406;9.690;2022-12-29T10:45:24;5.10;;;1.70;;
64633;SDS011;51043;52.406;9.690;2022-12-29T10:47:58;3.13;;;1.30;;
64633;SDS011;51043;52.406;9.690;2022-12-29T10:50:26;4.07;;;1.57;;
64633;SDS011;51043;52.406;9.690;2022-12-29T10:52:56;2.80;;;1.70;;
64633;SDS011;51043;52.406;9.690;2022-12-29T10:55:36;3.63;;;1.70;;
64633;SDS011;51043;52.406;9.690;2022-12-29T10:58:07;4.27;;;1.70;;
64633;SDS011;51043;52.406;9.690;2022-12-29T11:00:39;4.63;;;2.00;;
64633;SDS011;51043;52.406;9.690;2022-12-29T11:03:18;3.13;;;1.50;;
64633;SDS011;51043;52.406;9.690;2022-12-29T11:08:25;7.37;;;1.60;;
64633;SDS011;51043;52.406;9.690;2022-12-29T11:10:59;6.03;;;1.47;;
64633;SDS011;51043;52.406;9.690;2022-12-29T11:13:32;3.70;;;2.00;;
64633;SDS011;51043;52.406;9.690;2022-12-29T11:16:04;3.40;;;1.70;;
64633;SDS011;51043;52.406;9.690;2022-12-29T11:18:36;3.30;;;1.27;;
64633;SDS011;51043;52.406;9.690;2022-12-29T11:21:05;4.20;;;1.77;;
64633;SDS011;51043;52.406;9.690;2022-12-29T11:24:36;5.77;;;1.70;;
64633;SDS011;51043;52.406;9.690;2022-12-29T11:26:53;3.80;;;1.47;;
64633;SDS011;51043;52.406;9.690;2022-12-29T11:29:28;5.73;;;1.60;;
64633;SDS011;51043;52.406;9.690;2022-12-29T11:32:10;4.67;;;2.37;;
64633;SDS011;51043;52.406;9.690;2022-12-29T11:34:39;2.40;;;1.10;;
64633;SDS011;51043;52.406;9.690;2022-12-29T11:37:09;5.20;;;2.00;;
64633;SDS011;51043;52.406;9.690;2022-12-29T11:42:14;6.90;;;1.87;;
64633;SDS011;51043;52.406;9.690;2022-12-29T11:44:46;4.33;;;1.60;;
64633;SDS011;51043;52.406;9.690;2022-12-29T11:47:28;8.47;;;2.33;;
64633;SDS011;51043;52.406;9.690;2022-12-29T11:49:59;6.37;;;2.20;;
64633;SDS011;51043;52.406;9.690;2022-12-29T11:52:30;8.23;;;1.90;;
64633;SDS011;51043;52.406;9.690;2022-12-29T11:55:02;5.80;;;1.70;;
64633;SDS011;51043;52.406;9.690;2022-12-29T11:57:32;5.90;;;2.03;;
64633;SDS011;51043;52.406;9.690;2022-12-29T12:00:13;5.30;;;1.60;;
64633;SDS011;51043;52.406;9.690;2022-12-29T12:08:44;6.83;;;1.73;;
64633;SDS011;51043;52.406;9.690;2022-12-29T12:11:16;6.07;;;1.60;;
64633;SDS011;51043;52.406;9.690;2022-12-29T12:16:36;4.10;;;1.53;;
64633;SDS011;51043;52.406;9.690;2022-12-29T12:19:31;6.93;;;1.73;;
64633;SDS011;51043;52.406;9.690;2022-12-29T12:25:02;3.97;;;1.63;;
64633;SDS011;51043;52.406;9.690;2022-12-29T12:27:48;5.10;;;2.13;;
64633;SDS011;51043;52.406;9.690;2022-12-29T12:30:28;4.27;;;1.33;;
64633;SDS011;51043;52.406;9.690;2022-12-29T12:33:12;5.83;;;2.00;;
64633;SDS011;51043;52.406;9.690;2022-12-29T12:38:52;4.93;;;1.70;;
64633;SDS011;51043;52.406;9.690;2022-12-29T12:41:32;7.70;;;2.50;;
64633;SDS011;51043;52.406;9.690;2022-12-29T12:44:27;5.27;;;1.90;;
64633;SDS011;51043;52.406;9.690;2022-12-29T12:53:00;3.60;;;1.43;;
64633;SDS011;51043;52.406;9.690;2022-12-29T12:58:15;9.20;;;3.10;;
64633;SDS011;51043;52.406;9.690;2022-12-29T13:03:44;3.63;;;1.30;;
64633;SDS011;51043;52.406;9.690;2022-12-29T13:09:43;4.93;;;1.87;;
64633;SDS011;51043;52.406;9.690;2022-12-29T13:15:12;6.23;;;2.43;;
64633;SDS011;51043;52.406;9.690;2022-12-29T13:17:49;9.50;;;2.33;;
64633;SDS011;51043;52.406;9.690;2022-12-29T13:23:43;8.53;;;2.23;;
64633;SDS011;51043;52.406;9.690;2022-12-29T13:26:34;8.57;;;2.60;;
64633;SDS011;51043;52.406;9.690;2022-12-29T13:30:08;2.33;;;1.10;;
64633;SDS011;51043;52.406;9.690;2022-12-29T13:32:23;3.97;;;1.70;;
64633;SDS011;51043;52.406;9.690;2022-12-29T13:35:19;4.87;;;1.70;;
64633;SDS011;51043;52.406;9.690;2022-12-29T13:38:19;3.77;;;1.50;;
64633;SDS011;51043;52.406;9.690;2022-12-29T13:41:01;6.27;;;1.50;;
64633;SDS011;51043;52.406;9.690;2022-12-29T13:43:35;6.03;;;1.73;;
64633;SDS011;51043;52.406;9.690;2022-12-29T13:46:07;4.47;;;1.50;;
64633;SDS011;51043;52.406;9.690;2022-12-29T13:48:43;5.93;;;2.23;;
64633;SDS011;51043;52.406;9.690;2022-12-29T13:51:15;9.33;;;5.10;;
64633;SDS011;51043;52.406;9.690;2022-12-29T13:56:42;7.83;;;2.17;;
64633;SDS011;51043;52.406;9.690;2022-12-29T13:59:36;5.90;;;1.90;;
64633;SDS011;51043;52.406;9.690;2022-12-29T14:05:00;3.33;;;1.60;;
64633;SDS011;51043;52.406;9.690;2022-12-29T14:07:38;5.23;;;1.33;;
64633;SDS011;51043;52.406;9.690;2022-12-29T14:10:06;11.57;;;1.63;;
64633;SDS011;51043;52.406;9.690;2022-12-29T14:12:51;4.70;;;1.73;;
64633;SDS011;51043;52.406;9.690;2022-12-29T14:15:28;4.53;;;1.67;;
64633;SDS011;51043;52.406;9.690;2022-12-29T14:18:09;4.90;;;2.30;;
64633;SDS011;51043;52.406;9.690;2022-12-29T14:26:10;8.07;;;2.10;;
64633;SDS011;51043;52.406;9.690;2022-12-29T14:28:44;7.57;;;2.03;;
64633;SDS011;51043;52.406;9.690;2022-12-29T14:39:28;5.13;;;1.93;;
64633;SDS011;51043;52.406;9.690;2022-12-29T14:44:57;8.47;;;2.00;;
64633;SDS011;51043;52.406;9.690;2022-12-29T14:52:30;7.50;;;1.97;;
64633;SDS011;51043;52.406;9.690;2022-12-29T14:57:34;7.77;;;2.30;;
64633;SDS011;51043;52.406;9.690;2022-12-29T15:00:15;9.63;;;2.17;;
64633;SDS011;51043;52.406;9.690;2022-12-29T15:02:59;7.27;;;2.20;;
64633;SDS011;51043;52.406;9.690;2022-12-29T15:05:36;5.77;;;2.90;;
64633;SDS011;51043;52.406;9.690;2022-12-29T15:08:10;3.97;;;1.60;;
64633;SDS011;51043;52.406;9.690;2022-12-29T15:10:41;2.80;;;1.40;;
64633;SDS011;51043;52.406;9.690;2022-12-29T15:13:15;6.23;;;1.90;;
64633;SDS011;51043;52.406;9.690;2022-12-29T15:15:47;2.80;;;1.50;;
64633;SDS011;51043;52.406;9.690;2022-12-29T15:18:24;3.83;;;1.97;;
64633;SDS011;51043;52.406;9.690;2022-12-29T15:20:54;5.20;;;1.97;;
64633;SDS011;51043;52.406;9.690;2022-12-29T15:23:31;5.93;;;1.90;;
64633;SDS011;51043;52.406;9.690;2022-12-29T15:26:04;7.90;;;2.00;;
64633;SDS011;51043;52.406;9.690;2022-12-29T15:28:40;6.20;;;1.97;;
64633;SDS011;51043;52.406;9.690;2022-12-29T15:31:11;6.20;;;1.80;;
64633;SDS011;51043;52.406;9.690;2022-12-29T15:33:42;5.40;;;1.83;;
64633;SDS011;51043;52.406;9.690;2022-12-29T15:36:16;11.50;;;4.87;;
64633;SDS011;51043;52.406;9.690;2022-12-29T15:38:49;9.47;;;2.43;;
64633;SDS011;51043;52.406;9.690;2022-12-29T15:41:28;8.77;;;4.10;;
64633;SDS011;51043;52.406;9.690;2022-12-29T15:47:03;5.83;;;2.20;;
64633;SDS011;51043;52.406;9.690;2022-12-29T15:49:31;8.47;;;3.17;;
64633;SDS011;51043;52.406;9.690;2022-12-29T15:51:58;8.50;;;2.37;;
64633;SDS011;51043;52.406;9.690;2022-12-29T15:54:26;6.80;;;2.00;;
64633;SDS011;51043;52.406;9.690;2022-12-29T15:56:58;9.47;;;2.83;;
64633;SDS011;51043;52.406;9.690;2022-12-29T15:59:25;7.70;;;2.27;;
64633;SDS011;51043;52.406;9.690;2022-12-29T16:01:57;10.13;;;3.37;;
64633;SDS011;51043;52.406;9.690;2022-12-29T16:04:30;13.63;;;4.43;;
64633;SDS011;51043;52.406;9.690;2022-12-29T16:07:05;4.47;;;2.20;;
64633;SDS011;51043;52.406;9.690;2022-12-29T16:09:53;10.60;;;3.07;;
64633;SDS011;51043;52.406;9.690;2022-12-29T16:12:22;10.40;;;4.27;;
64633;SDS011;51043;52.406;9.690;2022-12-29T16:14:57;9.77;;;4.20;;
64633;SDS011;51043;52.406;9.690;2022-12-29T16:17:33;5.70;;;2.33;;
64633;SDS011;51043;52.406;9.690;2022-12-29T16:22:55;14.73;;;6.83;;
64633;SDS011;51043;52.406;9.690;2022-12-29T16:25:24;5.23;;;2.23;;
64633;SDS011;51043;52.406;9.690;2022-12-29T16:28:00;6.63;;;2.77;;
64633;SDS011;51043;52.406;9.690;2022-12-29T16:30:29;9.00;;;3.67;;
64633;SDS011;51043;52.406;9.690;2022-12-29T16:33:00;9.83;;;3.63;;
64633;SDS011;51043;52.406;9.690;2022-12-29T16:35:38;9.10;;;3.03;;
64633;SDS011;51043;52.406;9.690;2022-12-29T16:38:15;11.20;;;4.50;;
64633;SDS011;51043;52.406;9.690;2022-12-29T16:48:27;9.30;;;3.03;;
64633;SDS011;51043;52.406;9.690;2022-12-29T16:51:06;23.87;;;11.33;;
64633;SDS011;51043;52.406;9.690;2022-12-29T16:53:40;12.40;;;3.77;;
64633;SDS011;51043;52.406;9.690;2022-12-29T16:56:15;11.57;;;3.70;;
64633;SDS011;51043;52.406;9.690;2022-12-29T16:58:48;9.37;;;3.10;;
64633;SDS011;51043;52.406;9.690;2022-12-29T17:01:17;11.63;;;4.33;;
64633;SDS011;51043;52.406;9.690;2022-12-29T17:03:47;12.30;;;5.10;;
64633;SDS011;51043;52.406;9.690;2022-12-29T17:06:21;17.10;;;7.73;;
64633;SDS011;51043;52.406;9.690;2022-12-29T17:08:49;9.17;;;2.77;;
64633;SDS011;51043;52.406;9.690;2022-12-29T17:16:56;6.80;;;2.63;;
64633;SDS011;51043;52.406;9.690;2022-12-29T17:19:33;6.47;;;2.73;;
64633;SDS011;51043;52.406;9.690;2022-12-29T17:22:11;12.90;;;4.03;;
64633;SDS011;51043;52.406;9.690;2022-12-29T17:24:41;9.53;;;3.37;;
64633;SDS011;51043;52.406;9.690;2022-12-29T17:27:09;9.07;;;2.83;;
64633;SDS011;51043;52.406;9.690;2022-12-29T17:30:05;10.97;;;5.07;;
64633;SDS011;51043;52.406;9.690;2022-12-29T17:32:43;7.67;;;2.60;;
64633;SDS011;51043;52.406;9.690;2022-12-29T17:35:16;13.07;;;5.07;;
64633;SDS011;51043;52.406;9.690;2022-12-29T17:37:44;20.20;;;8.83;;
64633;SDS011;51043;52.406;9.690;2022-12-29T17:42:44;17.47;;;7.20;;
64633;SDS011;51043;52.406;9.690;2022-12-29T17:45:25;9.73;;;3.43;;
64633;SDS011;51043;52.406;9.690;2022-12-29T17:47:54;9.37;;;3.33;;
64633;SDS011;51043;52.406;9.690;2022-12-29T17:50:25;12.77;;;5.07;;
64633;SDS011;51043;52.406;9.690;2022-12-29T17:53:04;11.47;;;4.00;;
64633;SDS011;51043;52.406;9.690;2022-12-29T17:55:32;11.80;;;5.07;;
64633;SDS011;51043;52.406;9.690;2022-12-29T17:58:16;40.77;;;15.77;;